createdAt,value
2019-01-28T00:01:52.276Z,2.83
2019-01-28T00:04:20.889Z,1.80
2019-01-28T00:06:49.714Z,2.37
2019-01-28T00:09:18.582Z,3.90
2019-01-28T00:11:47.158Z,3.50
2019-01-28T00:14:16.397Z,2.87
2019-01-28T00:16:44.945Z,4.33
2019-01-28T00:19:13.526Z,3.22
2019-01-28T00:21:42.485Z,5.72
2019-01-28T00:24:11.415Z,3.12
2019-01-28T00:26:39.990Z,1.70
2019-01-28T00:29:08.814Z,5.37
2019-01-28T00:31:37.681Z,5.30
2019-01-28T00:34:06.265Z,2.35
2019-01-28T00:36:35.800Z,3.98
2019-01-28T00:39:08.278Z,2.77
2019-01-28T00:41:36.791Z,3.65
2019-01-28T00:44:05.647Z,7.12
2019-01-28T00:46:34.546Z,3.95
2019-01-28T00:49:03.170Z,3.33
2019-01-28T00:51:31.754Z,2.30
2019-01-28T00:54:00.347Z,5.58
2019-01-28T00:56:28.927Z,5.08
2019-01-28T00:58:57.526Z,3.02
2019-01-28T01:01:26.415Z,2.80
2019-01-28T01:03:54.994Z,6.58
2019-01-28T01:06:24.228Z,4.30
2019-01-28T01:08:53.398Z,3.55
2019-01-28T01:11:22.277Z,3.00
2019-01-28T01:13:51.107Z,3.65
2019-01-28T01:16:19.639Z,5.50
2019-01-28T01:18:48.478Z,5.40
2019-01-28T01:21:17.010Z,6.05
2019-01-28T01:23:45.614Z,6.60
2019-01-28T01:26:14.186Z,5.95
2019-01-28T01:28:43.162Z,5.08
2019-01-28T01:31:11.773Z,6.15
2019-01-28T01:33:40.681Z,6.58
2019-01-28T01:36:09.233Z,6.47
2019-01-28T01:38:38.159Z,7.65
2019-01-28T01:41:06.710Z,8.05
2019-01-28T01:43:35.341Z,6.67
2019-01-28T01:46:03.891Z,6.80
2019-01-28T01:48:32.471Z,7.08
2019-01-28T01:51:01.778Z,7.55
2019-01-28T01:53:31.086Z,4.97
2019-01-28T01:55:59.687Z,6.75
2019-01-28T01:58:28.526Z,5.20
2019-01-28T02:00:57.379Z,5.25
2019-01-28T02:03:25.925Z,5.80
2019-01-28T02:05:54.749Z,7.62
2019-01-28T02:08:23.574Z,5.72
2019-01-28T02:10:52.502Z,7.75
2019-01-28T02:13:21.816Z,12.05
2019-01-28T02:15:50.370Z,9.23
2019-01-28T02:18:18.964Z,2.45
2019-01-28T02:20:47.537Z,3.87
2019-01-28T02:23:16.452Z,6.97
2019-01-28T02:25:45.011Z,5.58
2019-01-28T02:28:13.615Z,4.10
2019-01-28T02:30:42.443Z,4.25
2019-01-28T02:33:10.975Z,4.15
2019-01-28T02:35:39.565Z,9.15
2019-01-28T02:38:08.382Z,5.40
2019-01-28T02:40:37.155Z,8.78
2019-01-28T02:43:05.958Z,6.60
2019-01-28T02:45:34.747Z,4.72
2019-01-28T02:48:03.290Z,4.55
2019-01-28T02:50:32.530Z,4.72
2019-01-28T02:53:01.730Z,4.53
2019-01-28T02:55:30.276Z,2.85
2019-01-28T02:57:58.846Z,6.97
2019-01-28T03:00:27.445Z,5.72
2019-01-28T03:02:56.026Z,4.08
2019-01-28T03:05:24.611Z,1.40
2019-01-28T03:07:53.181Z,1.25
2019-01-28T03:10:22.849Z,5.72
2019-01-28T03:12:51.370Z,4.30
2019-01-28T03:15:20.230Z,2.17
2019-01-28T03:17:49.068Z,3.72
2019-01-28T03:20:18.439Z,4.87
2019-01-28T03:22:47.054Z,3.62
2019-01-28T03:25:16.086Z,2.62
2019-01-28T03:27:44.647Z,3.83
2019-01-28T03:30:15.124Z,3.33
2019-01-28T03:32:43.985Z,3.25
2019-01-28T03:35:12.618Z,1.37
2019-01-28T03:37:41.464Z,2.50
2019-01-28T03:40:12.535Z,2.25
2019-01-28T03:42:41.320Z,6.05
2019-01-28T03:45:12.378Z,1.62
2019-01-28T03:47:40.971Z,3.50
2019-01-28T03:50:10.270Z,2.77
2019-01-28T03:52:39.378Z,2.55
2019-01-28T03:55:08.779Z,2.75
2019-01-28T03:57:37.367Z,3.60
2019-01-28T04:00:08.579Z,2.83
2019-01-28T04:02:37.215Z,4.90
2019-01-28T04:05:07.554Z,1.92
2019-01-28T04:07:36.088Z,1.25
2019-01-28T04:10:06.434Z,3.55
2019-01-28T04:12:35.247Z,2.00
2019-01-28T04:15:04.290Z,1.67
2019-01-28T04:17:32.878Z,1.67
2019-01-28T04:20:01.483Z,2.67
2019-01-28T04:22:30.399Z,4.22
2019-01-28T04:24:58.954Z,2.75
2019-01-28T04:27:28.817Z,0.60
2019-01-28T04:29:57.595Z,0.78
2019-01-28T04:32:26.127Z,0.53
2019-01-28T04:34:54.707Z,0.60
2019-01-28T04:37:23.302Z,1.32
2019-01-28T04:39:52.357Z,0.55
2019-01-28T04:42:20.883Z,0.72
2019-01-28T04:44:49.979Z,0.20
2019-01-28T04:47:18.623Z,0.40
2019-01-28T04:49:47.422Z,0.30
2019-01-28T04:52:16.686Z,0.30
2019-01-28T04:54:45.894Z,0.35
2019-01-28T04:57:14.755Z,0.75
2019-01-28T04:59:43.704Z,0.30
2019-01-28T05:02:12.708Z,0.40
2019-01-28T05:04:41.300Z,0.68
2019-01-28T05:07:09.894Z,0.95
2019-01-28T05:09:38.855Z,1.85
2019-01-28T05:12:07.474Z,0.20
2019-01-28T05:14:36.065Z,0.25
2019-01-28T05:17:05.195Z,0.20
2019-01-28T05:19:33.729Z,0.30
2019-01-28T05:22:02.354Z,0.80
2019-01-28T05:24:30.906Z,0.30
2019-01-28T05:26:59.484Z,0.20
2019-01-28T05:29:28.726Z,0.20
2019-01-28T05:31:57.990Z,0.20
2019-01-28T05:34:26.566Z,0.20
2019-01-28T05:36:55.708Z,0.20
2019-01-28T05:39:24.310Z,0.20
2019-01-28T05:41:53.387Z,0.20
2019-01-28T05:44:21.901Z,1.35
2019-01-28T05:46:52.279Z,0.10
2019-01-28T05:49:21.563Z,1.20
2019-01-28T05:51:50.451Z,0.30
2019-01-28T05:54:19.042Z,0.30
2019-01-28T05:56:47.610Z,0.50
2019-01-28T05:59:16.852Z,0.25
2019-01-28T06:01:45.416Z,0.10
2019-01-28T06:04:14.270Z,0.50
2019-01-28T06:06:43.514Z,0.28
2019-01-28T06:09:12.834Z,0.57
2019-01-28T06:11:41.358Z,0.23
2019-01-28T06:14:09.959Z,1.65
2019-01-28T06:16:38.782Z,0.20
2019-01-28T06:19:07.327Z,0.53
2019-01-28T06:21:35.925Z,0.65
2019-01-28T06:24:04.490Z,2.10
2019-01-28T06:26:33.314Z,0.60
2019-01-28T06:29:02.239Z,0.35
2019-01-28T06:31:31.166Z,0.40
2019-01-28T06:34:00.408Z,1.85
2019-01-28T06:36:28.939Z,0.30
2019-01-28T06:38:57.528Z,0.95
2019-01-28T06:41:26.467Z,0.53
2019-01-28T06:43:55.559Z,1.15
2019-01-28T06:46:24.423Z,2.37
2019-01-28T06:48:52.986Z,1.27
2019-01-28T06:51:21.580Z,0.78
2019-01-28T06:53:50.146Z,0.37
2019-01-28T06:56:18.847Z,1.65
2019-01-28T06:58:47.428Z,0.50
2019-01-28T07:01:16.023Z,2.25
2019-01-28T07:03:44.594Z,0.72
2019-01-28T07:06:16.818Z,1.67
2019-01-28T07:08:45.354Z,0.93
2019-01-28T07:11:13.960Z,2.05
2019-01-28T07:13:42.522Z,0.93
2019-01-28T07:16:11.103Z,1.50
2019-01-28T07:18:39.601Z,0.65
2019-01-28T07:21:08.382Z,1.72
2019-01-28T07:23:36.891Z,2.37
2019-01-28T07:26:05.402Z,4.10
2019-01-28T07:28:33.915Z,1.32
2019-01-28T07:31:02.418Z,1.52
2019-01-28T07:33:31.222Z,0.70
2019-01-28T07:36:00.199Z,1.27
2019-01-28T07:38:29.046Z,1.92
2019-01-28T07:40:57.848Z,0.90
2019-01-28T07:43:26.699Z,1.05
2019-01-28T07:45:55.203Z,3.35
2019-01-28T07:48:23.990Z,2.70
2019-01-28T07:50:52.538Z,2.83
2019-01-28T07:53:21.328Z,1.47
2019-01-28T07:55:50.127Z,0.57
2019-01-28T07:58:18.879Z,1.77
2019-01-28T08:00:48.366Z,2.92
2019-01-28T08:03:17.778Z,0.62
2019-01-28T08:05:46.354Z,9.20
2019-01-28T08:08:15.014Z,0.75
2019-01-28T08:10:43.530Z,0.62
2019-01-28T08:13:12.109Z,1.55
2019-01-28T08:15:41.214Z,0.50
2019-01-28T08:18:11.147Z,1.27
2019-01-28T08:20:40.154Z,1.40
2019-01-28T08:23:08.711Z,1.37
2019-01-28T08:25:37.294Z,1.80
2019-01-28T08:28:05.882Z,2.50
2019-01-28T08:30:38.682Z,1.62
2019-01-28T08:33:07.691Z,2.40
2019-01-28T08:35:37.328Z,2.50
2019-01-28T08:38:05.951Z,3.17
2019-01-28T08:40:34.801Z,1.60
2019-01-28T08:43:03.808Z,2.05
2019-01-28T08:45:32.318Z,4.05
2019-01-28T08:48:01.547Z,1.55
2019-01-28T08:50:30.085Z,0.95
2019-01-28T08:52:58.733Z,1.62
2019-01-28T08:55:27.531Z,0.50
2019-01-28T08:57:56.296Z,2.85
2019-01-28T09:00:36.587Z,3.00
2019-01-28T09:03:05.543Z,3.98
2019-01-28T09:05:34.435Z,2.27
2019-01-28T09:08:02.974Z,2.83
2019-01-28T09:10:31.556Z,1.10
2019-01-28T09:13:00.206Z,0.98
2019-01-28T09:15:28.754Z,2.12
2019-01-28T09:17:57.525Z,2.12
2019-01-28T09:20:26.580Z,2.10
2019-01-28T09:22:55.423Z,2.22
2019-01-28T09:25:24.022Z,1.45
2019-01-28T09:27:52.806Z,0.60
2019-01-28T09:30:26.275Z,3.27
2019-01-28T09:32:55.517Z,1.67
2019-01-28T09:35:24.318Z,3.15
2019-01-28T09:37:53.082Z,3.70
2019-01-28T09:40:22.841Z,2.47
2019-01-28T09:42:52.194Z,2.50
2019-01-28T09:45:26.250Z,2.45
2019-01-28T09:47:55.415Z,3.70
2019-01-28T09:50:23.954Z,2.65
2019-01-28T09:52:52.527Z,1.35
2019-01-28T09:55:21.130Z,2.92
2019-01-28T09:57:49.750Z,1.30
2019-01-28T10:00:45.142Z,4.55
2019-01-28T10:03:13.914Z,2.33
2019-01-28T10:05:42.739Z,3.25
2019-01-28T10:08:11.306Z,2.35
2019-01-28T10:10:39.867Z,2.02
2019-01-28T10:13:08.682Z,2.22
2019-01-28T10:15:37.558Z,0.70
2019-01-28T10:18:06.579Z,1.22
2019-01-28T10:20:44.609Z,4.58
2019-01-28T10:23:11.195Z,2.12
2019-01-28T10:25:39.798Z,1.02
2019-01-28T10:28:08.916Z,1.55
2019-01-28T10:30:39.135Z,2.35
2019-01-28T10:33:08.446Z,0.60
2019-01-28T10:35:38.098Z,6.37
2019-01-28T10:38:07.389Z,1.25
2019-01-28T10:40:37.597Z,0.50
2019-01-28T10:43:07.272Z,1.40
2019-01-28T10:45:36.053Z,0.70
2019-01-28T10:48:05.578Z,1.98
2019-01-28T10:50:34.111Z,2.15
2019-01-28T10:53:02.632Z,2.17
2019-01-28T10:55:31.126Z,1.85
2019-01-28T10:57:59.894Z,2.92
2019-01-28T11:00:30.733Z,0.60
2019-01-28T11:02:59.523Z,1.22
2019-01-28T11:05:28.118Z,1.10
2019-01-28T11:07:56.905Z,1.75
2019-01-28T11:10:25.499Z,1.35
2019-01-28T11:12:53.978Z,0.60
2019-01-28T11:15:24.471Z,0.82
2019-01-28T11:17:53.496Z,1.27
2019-01-28T11:20:22.328Z,0.57
2019-01-28T11:22:51.654Z,2.72
2019-01-28T11:25:22.580Z,0.95
2019-01-28T11:27:51.149Z,2.45
2019-01-28T11:30:23.105Z,3.22
2019-01-28T11:32:52.262Z,0.45
2019-01-28T11:35:20.833Z,0.60
2019-01-28T11:37:49.630Z,0.80
2019-01-28T11:40:18.431Z,0.57
2019-01-28T11:42:47.202Z,2.33
2019-01-28T11:45:25.143Z,1.25
2019-01-28T11:47:53.773Z,1.72
2019-01-28T11:50:22.330Z,1.25
2019-01-28T11:52:51.166Z,1.10
2019-01-28T11:55:19.668Z,1.77
2019-01-28T11:57:48.434Z,1.25
2019-01-28T12:00:20.701Z,0.93
2019-01-28T12:02:49.218Z,1.45
2019-01-28T12:05:18.283Z,0.80
2019-01-28T12:07:47.072Z,0.20
2019-01-28T12:10:15.887Z,0.93
2019-01-28T12:12:44.511Z,1.35
2019-01-28T12:15:14.110Z,1.17
2019-01-28T12:17:43.086Z,0.45
2019-01-28T12:20:12.379Z,0.72
2019-01-28T12:22:41.338Z,0.30
2019-01-28T12:25:11.180Z,1.55
2019-01-28T12:27:41.602Z,0.30
2019-01-28T12:30:14.398Z,0.75
2019-01-28T12:32:42.906Z,0.98
2019-01-28T12:35:11.830Z,0.72
2019-01-28T12:37:41.039Z,0.50
2019-01-28T12:40:10.071Z,0.57
2019-01-28T12:42:38.671Z,0.40
2019-01-28T12:45:09.067Z,4.22
2019-01-28T12:47:37.826Z,1.52
2019-01-28T12:50:06.959Z,0.40
2019-01-28T12:52:35.905Z,0.72
2019-01-28T12:55:05.319Z,0.47
2019-01-28T12:57:34.107Z,0.45
2019-01-28T13:00:02.912Z,1.62
2019-01-28T13:02:31.494Z,0.30
2019-01-28T13:05:00.032Z,0.30
2019-01-28T13:07:28.599Z,0.30
2019-01-28T13:09:57.439Z,0.30
2019-01-28T13:12:25.969Z,0.42
2019-01-28T13:14:54.643Z,0.80
2019-01-28T13:17:23.304Z,0.80
2019-01-28T13:19:53.615Z,2.70
2019-01-28T13:22:22.716Z,1.30
2019-01-28T13:24:51.602Z,0.55
2019-01-28T13:27:20.514Z,0.40
2019-01-28T13:29:49.054Z,0.25
2019-01-28T13:32:17.614Z,0.30
2019-01-28T13:34:46.863Z,0.30
2019-01-28T13:37:15.650Z,0.40
2019-01-28T13:39:44.195Z,1.27
2019-01-28T13:42:13.032Z,0.30
2019-01-28T13:44:41.578Z,0.25
2019-01-28T13:47:10.399Z,0.20
2019-01-28T13:49:38.934Z,1.55
2019-01-28T13:52:07.971Z,0.40
2019-01-28T13:54:36.530Z,0.47
2019-01-28T13:57:05.091Z,0.50
2019-01-28T13:59:33.692Z,0.65
2019-01-28T14:02:02.258Z,0.28
2019-01-28T14:04:30.855Z,0.30
2019-01-28T14:06:59.483Z,0.30
2019-01-28T14:09:28.042Z,0.40
2019-01-28T14:11:56.630Z,0.47
2019-01-28T14:14:25.215Z,0.20
2019-01-28T14:16:53.758Z,0.42
2019-01-28T14:19:22.982Z,0.47
2019-01-28T14:21:52.206Z,0.50
2019-01-28T14:24:20.734Z,0.30
2019-01-28T14:26:49.327Z,1.35
2019-01-28T14:29:18.008Z,0.25
2019-01-28T14:31:46.903Z,0.50
2019-01-28T14:34:15.973Z,0.40
2019-01-28T14:36:44.662Z,0.53
2019-01-28T14:39:13.970Z,0.47
2019-01-28T14:41:42.579Z,0.40
2019-01-28T14:44:11.485Z,0.35
2019-01-28T14:46:40.055Z,0.37
2019-01-28T14:49:08.879Z,0.60
2019-01-28T14:51:37.423Z,1.50
2019-01-28T14:54:06.000Z,0.20
2019-01-28T14:56:34.598Z,0.50
2019-01-28T14:59:03.168Z,0.50
2019-01-28T15:01:32.322Z,0.53
2019-01-28T15:04:00.848Z,0.40
2019-01-28T15:06:29.862Z,0.53
2019-01-28T15:08:58.456Z,4.08
2019-01-28T15:11:27.010Z,0.60
2019-01-28T15:13:55.938Z,1.60
2019-01-28T15:16:24.495Z,0.50
2019-01-28T15:18:53.074Z,1.55
2019-01-28T15:21:21.907Z,1.02
2019-01-28T15:23:50.691Z,1.27
2019-01-28T15:26:19.258Z,1.37
2019-01-28T15:28:48.068Z,2.45
2019-01-28T15:31:16.931Z,0.62
2019-01-28T15:33:45.494Z,4.65
2019-01-28T15:36:14.834Z,2.20
2019-01-28T15:38:43.868Z,0.68
2019-01-28T15:41:13.146Z,2.40
2019-01-28T15:43:42.018Z,0.60
2019-01-28T15:46:11.226Z,0.50
2019-01-28T15:48:40.013Z,0.95
2019-01-28T15:51:08.946Z,1.35
2019-01-28T15:53:37.794Z,2.00
2019-01-28T15:56:06.787Z,3.22
2019-01-28T15:58:35.589Z,1.05
2019-01-28T16:01:04.190Z,1.15
2019-01-28T16:03:33.560Z,1.62
2019-01-28T16:06:02.166Z,2.15
2019-01-28T16:08:30.971Z,1.17
2019-01-28T16:10:59.617Z,0.85
2019-01-28T16:13:28.641Z,2.95
2019-01-28T16:15:57.611Z,2.08
2019-01-28T16:18:34.306Z,0.62
2019-01-28T16:20:57.370Z,2.87
2019-01-28T16:23:26.474Z,1.90
2019-01-28T16:25:55.079Z,1.15
2019-01-28T16:28:23.658Z,3.08
2019-01-28T16:30:52.252Z,1.67
2019-01-28T16:33:21.163Z,2.77
2019-01-28T16:35:49.958Z,1.95
2019-01-28T16:38:18.594Z,1.60
2019-01-28T16:40:47.192Z,1.65
2019-01-28T16:43:16.031Z,3.70
2019-01-28T16:45:44.625Z,3.10
2019-01-28T16:48:13.460Z,0.98
2019-01-28T16:50:42.051Z,1.62
2019-01-28T16:53:10.695Z,2.47
2019-01-28T16:55:39.654Z,2.25
2019-01-28T16:58:08.482Z,1.10
2019-01-28T17:00:41.674Z,2.25
2019-01-28T17:03:11.595Z,1.42
2019-01-28T17:05:40.619Z,8.28
2019-01-28T17:08:09.195Z,2.50
2019-01-28T17:10:38.163Z,1.87
2019-01-28T17:13:07.945Z,3.12
2019-01-28T17:15:36.838Z,4.00
2019-01-28T17:18:05.625Z,2.98
2019-01-28T17:20:35.573Z,3.83
2019-01-28T17:23:05.051Z,2.87
2019-01-28T17:25:39.104Z,3.25
2019-01-28T17:28:08.023Z,2.85
2019-01-28T17:30:38.733Z,2.05
2019-01-28T17:33:07.754Z,4.53
2019-01-28T17:35:36.866Z,4.30
2019-01-28T17:38:07.150Z,4.80
2019-01-28T17:40:35.910Z,5.47
2019-01-28T17:43:05.119Z,3.90
2019-01-28T17:45:33.742Z,7.62
2019-01-28T17:48:02.623Z,11.35
2019-01-28T17:50:31.374Z,11.75
2019-01-28T17:52:59.986Z,6.37
2019-01-28T17:55:28.642Z,7.60
2019-01-28T17:57:57.644Z,6.37
2019-01-28T18:00:30.049Z,10.43
2019-01-28T18:02:58.724Z,4.75
2019-01-28T18:05:27.303Z,6.87
2019-01-28T18:07:56.361Z,5.67
2019-01-28T18:10:25.001Z,11.08
2019-01-28T18:12:53.506Z,7.97
2019-01-28T18:15:23.281Z,6.90
2019-01-28T18:17:52.099Z,6.05
2019-01-28T18:20:21.363Z,12.65
2019-01-28T18:22:49.898Z,10.18
2019-01-28T18:25:26.502Z,9.80
2019-01-28T18:27:55.480Z,13.03
2019-01-28T18:30:29.499Z,7.60
2019-01-28T18:32:58.675Z,14.03
2019-01-28T18:35:27.205Z,9.13
2019-01-28T18:37:55.795Z,9.48
2019-01-28T18:40:24.734Z,10.28
2019-01-28T18:42:53.326Z,8.48
2019-01-28T18:45:22.043Z,6.50
2019-01-28T18:47:50.700Z,10.68
2019-01-28T18:50:19.471Z,6.28
2019-01-28T18:52:48.006Z,12.18
2019-01-28T18:55:17.051Z,8.75
2019-01-28T18:57:45.604Z,11.25
2019-01-28T19:00:17.147Z,8.23
2019-01-28T19:02:45.727Z,12.82
2019-01-28T19:05:23.407Z,8.00
2019-01-28T19:07:55.486Z,5.28
2019-01-28T19:10:47.635Z,11.65
2019-01-28T19:13:38.106Z,9.45
2019-01-28T19:16:19.519Z,8.38
2019-01-28T19:19:05.249Z,4.75
2019-01-28T19:21:39.111Z,8.73
2019-01-28T19:24:08.042Z,6.70
2019-01-28T19:26:36.578Z,7.87
2019-01-28T19:29:05.167Z,4.78
2019-01-28T19:31:34.178Z,8.18
2019-01-28T19:34:02.738Z,9.93
2019-01-28T19:36:31.344Z,13.28
2019-01-28T19:39:00.250Z,9.95
2019-01-28T19:41:29.091Z,5.47
2019-01-28T19:43:58.048Z,5.95
2019-01-28T19:46:26.863Z,10.88
2019-01-28T19:48:55.480Z,6.62
2019-01-28T19:51:23.985Z,4.45
2019-01-28T19:53:52.563Z,7.95
2019-01-28T19:56:21.114Z,4.58
2019-01-28T19:58:49.690Z,8.08
2019-01-28T20:01:18.762Z,16.12
2019-01-28T20:03:47.373Z,12.07
2019-01-28T20:06:16.487Z,4.50
2019-01-28T20:08:45.071Z,6.40
2019-01-28T20:11:13.652Z,11.03
2019-01-28T20:13:42.787Z,4.83
2019-01-28T20:16:11.319Z,5.87
2019-01-28T20:18:40.238Z,7.55
2019-01-28T20:21:08.811Z,7.42
2019-01-28T20:23:37.650Z,8.25
2019-01-28T20:26:06.202Z,8.58
2019-01-28T20:28:35.769Z,12.03
2019-01-28T20:31:04.477Z,10.32
2019-01-28T20:33:33.782Z,5.12
2019-01-28T20:36:02.347Z,7.72
2019-01-28T20:38:31.368Z,11.45
2019-01-28T20:40:59.927Z,3.90
2019-01-28T20:43:28.583Z,6.08
2019-01-28T20:45:57.550Z,4.08
2019-01-28T20:48:26.128Z,12.33
2019-01-28T20:50:54.654Z,5.58
2019-01-28T20:53:23.511Z,9.30
2019-01-28T20:55:52.293Z,6.10
2019-01-28T20:58:21.089Z,11.43
2019-01-28T21:00:50.187Z,9.98
2019-01-28T21:03:18.742Z,6.33
2019-01-28T21:05:47.428Z,10.88
2019-01-28T21:08:16.245Z,8.43
2019-01-28T21:10:44.803Z,7.03
2019-01-28T21:13:13.760Z,5.90
2019-01-28T21:15:42.548Z,10.53
2019-01-28T21:18:11.399Z,3.70
2019-01-28T21:20:39.934Z,8.78
2019-01-28T21:23:08.521Z,7.70
2019-01-28T21:25:37.985Z,8.40
2019-01-28T21:28:06.759Z,11.50
2019-01-28T21:30:35.289Z,8.20
2019-01-28T21:33:03.871Z,8.20
2019-01-28T21:35:44.927Z,10.78
2019-01-28T21:38:16.774Z,7.72
2019-01-28T21:40:45.314Z,11.35
2019-01-28T21:43:14.392Z,11.65
2019-01-28T21:45:43.371Z,6.45
2019-01-28T21:48:11.962Z,10.05
2019-01-28T21:50:40.555Z,8.40
2019-01-28T21:53:09.330Z,12.53
2019-01-28T21:55:38.250Z,8.23
2019-01-28T21:58:06.802Z,6.67
2019-01-28T22:00:35.728Z,4.75
2019-01-28T22:03:04.226Z,6.65
2019-01-28T22:05:32.782Z,11.68
2019-01-28T22:08:01.734Z,5.87
2019-01-28T22:10:30.414Z,7.35
2019-01-28T22:12:59.182Z,10.98
2019-01-28T22:15:27.726Z,10.88
2019-01-28T22:17:56.663Z,6.78
2019-01-28T22:20:25.194Z,5.35
2019-01-28T22:22:53.775Z,9.00
2019-01-28T22:25:22.728Z,5.12
2019-01-28T22:27:57.255Z,7.25
2019-01-28T22:30:21.830Z,8.13
2019-01-28T22:32:50.622Z,12.23
2019-01-28T22:35:19.155Z,15.65
2019-01-28T22:37:48.132Z,10.55
2019-01-28T22:40:16.746Z,5.78
2019-01-28T22:42:45.322Z,8.08
2019-01-28T22:45:15.375Z,5.08
2019-01-28T22:47:44.817Z,11.97
2019-01-28T22:50:14.939Z,10.80
2019-01-28T22:52:43.451Z,7.65
2019-01-28T22:55:13.827Z,7.33
2019-01-28T22:57:42.350Z,4.55
2019-01-28T23:00:23.738Z,5.80
2019-01-28T23:02:52.325Z,6.97
2019-01-28T23:05:20.907Z,9.25
2019-01-28T23:07:49.489Z,7.53
2019-01-28T23:10:18.110Z,9.50
2019-01-28T23:12:46.981Z,8.83
2019-01-28T23:15:15.475Z,8.48
2019-01-28T23:17:44.030Z,13.68
2019-01-28T23:20:12.602Z,9.18
2019-01-28T23:22:41.191Z,9.03
2019-01-28T23:25:09.790Z,8.25
2019-01-28T23:27:38.618Z,10.28
2019-01-28T23:30:07.531Z,6.58
2019-01-28T23:32:36.978Z,7.53
2019-01-28T23:35:06.015Z,7.95
2019-01-28T23:37:35.394Z,8.98
2019-01-28T23:40:03.991Z,9.25
2019-01-28T23:42:32.830Z,8.10
2019-01-28T23:45:01.668Z,5.35
2019-01-28T23:47:30.208Z,3.25
2019-01-28T23:49:58.783Z,10.85
2019-01-28T23:52:27.389Z,4.28
2019-01-28T23:54:56.520Z,6.10
2019-01-28T23:57:26.078Z,6.22
2019-01-28T23:59:54.975Z,6.67
